createdAt,value
2022-10-31T00:04:39.164Z,967.18
2022-10-31T00:09:41.192Z,967.1
2022-10-31T00:14:43.244Z,967.16
2022-10-31T00:19:44.807Z,967.18
2022-10-31T00:24:46.556Z,967.16
2022-10-31T00:29:48.566Z,967.14
2022-10-31T00:34:50.543Z,967.16
2022-10-31T00:39:51.968Z,967.23
2022-10-31T00:44:54.172Z,967.23
2022-10-31T00:49:55.348Z,967.17
2022-10-31T00:54:57.261Z,967.19
2022-10-31T00:59:58.483Z,967.23
2022-10-31T01:05:00.177Z,967.15
2022-10-31T01:10:01.732Z,967.15
2022-10-31T01:15:03.643Z,967.12
2022-10-31T01:20:05.499Z,967.11
2022-10-31T01:25:07.047Z,967.16
2022-10-31T01:30:08.555Z,967.21
2022-10-31T01:30:14.812Z,967.23
2022-10-31T01:35:16.626Z,967.14
2022-10-31T01:40:18.198Z,967.14
2022-10-31T01:45:20.390Z,967.1
2022-10-31T01:50:21.664Z,967.14
2022-10-31T01:55:25.163Z,967.09
2022-10-31T02:00:24.888Z,967.06
2022-10-31T02:05:26.293Z,967.04
2022-10-31T02:10:28.084Z,967.01
2022-10-31T02:15:29.507Z,967.07
2022-10-31T02:20:31.386Z,967.13
2022-10-31T02:25:33.291Z,967.15
2022-10-31T02:30:34.829Z,967.09
2022-10-31T02:35:36.007Z,967.09
2022-10-31T02:40:37.565Z,967.11
2022-10-31T02:45:38.871Z,967.11
2022-10-31T02:50:40.679Z,967.17
2022-10-31T02:55:41.798Z,967.19
2022-10-31T03:00:44.851Z,967.15
2022-10-31T03:05:45.997Z,967.13
2022-10-31T03:10:47.647Z,967.14
2022-10-31T03:15:49.084Z,967.12
2022-10-31T03:20:50.968Z,967.15
2022-10-31T03:25:52.648Z,967.15
2022-10-31T03:30:54.333Z,967.19
2022-10-31T03:35:55.480Z,967.22
2022-10-31T03:40:56.931Z,967.18
2022-10-31T03:45:58.508Z,967.13
2022-10-31T03:51:00.185Z,967.1
2022-10-31T03:56:01.684Z,967.15
2022-10-31T04:01:03.445Z,967.14
2022-10-31T04:06:05.060Z,967.15
2022-10-31T04:11:06.759Z,967.21
2022-10-31T04:16:10.094Z,967.15
2022-10-31T04:21:10.003Z,967.16
2022-10-31T04:26:11.870Z,967.18
2022-10-31T04:31:13.837Z,967.27
2022-10-31T04:36:15.239Z,967.28
2022-10-31T04:41:17.119Z,967.26
2022-10-31T04:46:18.596Z,967.28
2022-10-31T04:51:20.003Z,967.25
2022-10-31T05:01:23.410Z,967.26
2022-10-31T05:41:37.841Z,967.1
2022-10-31T05:46:39.316Z,967.08
2022-10-31T05:51:40.966Z,967.06
2022-10-31T05:56:42.935Z,967.05
2022-10-31T06:01:45.202Z,967.1
2022-10-31T06:11:48.151Z,967.15
2022-10-31T06:21:51.235Z,967.18
2022-10-31T06:26:52.614Z,967.16
2022-10-31T06:31:53.993Z,967.16
2022-10-31T06:36:55.812Z,967.19
2022-10-31T06:41:57.493Z,967.23
2022-10-31T06:46:59.223Z,967.24
2022-10-31T06:52:00.360Z,967.28
2022-10-31T06:57:01.797Z,967.29
2022-10-31T07:02:03.386Z,967.25
2022-10-31T07:07:04.450Z,967.26
2022-10-31T07:12:06.272Z,967.27
2022-10-31T07:17:08.242Z,967.25
2022-10-31T07:22:10.113Z,967.26
2022-10-31T07:27:11.525Z,967.27
2022-10-31T07:32:13.104Z,967.2
2022-10-31T07:37:14.864Z,967.2
2022-10-31T07:42:16.400Z,967.14
2022-10-31T07:47:18.473Z,967.11
2022-10-31T07:52:20.134Z,967.13
2022-10-31T07:57:25.019Z,967.18
2022-10-31T08:02:24.353Z,967.17
2022-10-31T08:07:26.482Z,967.11
2022-10-31T08:12:28.278Z,967.07
2022-10-31T08:17:29.704Z,967.01
2022-10-31T08:22:31.905Z,966.98
2022-10-31T08:27:33.519Z,966.93
2022-10-31T08:32:34.946Z,966.94
2022-10-31T08:37:37.168Z,966.84
2022-10-31T08:42:39.095Z,966.78
2022-10-31T08:47:40.820Z,966.75
2022-10-31T08:53:03.349Z,966.7
2022-10-31T08:57:43.523Z,966.62
2022-10-31T09:02:44.993Z,966.56
2022-10-31T09:07:46.497Z,966.61
2022-10-31T09:12:48.598Z,966.52
2022-10-31T09:17:50.093Z,966.46
2022-10-31T09:22:51.843Z,966.36
2022-10-31T09:27:53.016Z,966.31
2022-10-31T09:32:54.788Z,966.31
2022-10-31T09:37:56.444Z,966.27
2022-10-31T09:42:58.159Z,966.27
2022-10-31T09:47:59.816Z,966.26
2022-10-31T09:53:01.400Z,966.22
2022-10-31T09:58:02.451Z,966.2
2022-10-31T10:03:04.105Z,966.12
2022-10-31T10:08:05.641Z,966.14
2022-10-31T10:13:09.122Z,966.1
2022-10-31T10:18:09.212Z,966.1
2022-10-31T10:23:10.745Z,966.17
2022-10-31T10:28:12.780Z,966.08
2022-10-31T10:33:14.969Z,966.02
2022-10-31T10:38:16.698Z,965.95
2022-10-31T10:43:18.303Z,965.85
2022-10-31T10:48:19.908Z,965.84
2022-10-31T10:53:21.558Z,965.77
2022-10-31T10:58:22.882Z,965.7
2022-10-31T11:03:24.324Z,965.69
2022-10-31T11:08:27.300Z,965.65
2022-10-31T11:13:27.561Z,965.61
2022-10-31T11:18:28.836Z,965.5
2022-10-31T11:23:30.840Z,965.39
2022-10-31T11:28:32.769Z,965.37
2022-10-31T11:33:34.267Z,965.35
2022-10-31T11:38:36.258Z,965.34
2022-10-31T11:43:37.408Z,965.35
2022-10-31T11:48:39.600Z,965.22
2022-10-31T11:53:41.736Z,965.16
2022-10-31T11:58:42.890Z,965.1
2022-10-31T12:03:44.557Z,965.01
2022-10-31T12:08:46.485Z,964.93
2022-10-31T12:13:48.356Z,964.86
2022-10-31T12:18:50.056Z,964.91
2022-10-31T12:23:51.699Z,964.94
2022-10-31T12:28:55.284Z,964.84
2022-10-31T12:33:54.971Z,964.8
2022-10-31T12:38:57.423Z,964.78
2022-10-31T12:43:58.234Z,964.8
2022-10-31T12:48:59.672Z,964.75
2022-10-31T12:54:01.140Z,964.65
2022-10-31T12:59:02.548Z,964.51
2022-10-31T13:04:03.732Z,964.4
2022-10-31T13:09:05.034Z,964.31
2022-10-31T13:14:06.964Z,964.31
2022-10-31T13:19:08.738Z,964.28
2022-10-31T13:24:10.071Z,964.22
2022-10-31T13:29:12.217Z,964.18
2022-10-31T13:34:14.312Z,964.11
2022-10-31T13:39:15.684Z,964.08
2022-10-31T13:44:17.745Z,964.08
2022-10-31T13:49:19.141Z,964.07
2022-10-31T13:54:20.607Z,963.97
2022-10-31T13:59:22.448Z,963.94
2022-10-31T14:04:25.741Z,963.92
2022-10-31T14:09:26.282Z,963.95
2022-10-31T14:14:27.822Z,963.9
2022-10-31T14:19:29.319Z,963.81
2022-10-31T14:24:30.851Z,963.73
2022-10-31T14:29:32.192Z,963.67
2022-10-31T14:34:33.925Z,963.62
2022-10-31T14:39:35.318Z,963.56
2022-10-31T14:44:37.343Z,963.55
2022-10-31T14:49:38.675Z,963.58
2022-10-31T14:54:39.995Z,963.52
2022-10-31T14:59:41.463Z,963.52
2022-10-31T15:04:42.782Z,963.45
2022-10-31T15:09:44.239Z,963.41
2022-10-31T15:14:45.333Z,963.36
2022-10-31T15:19:46.973Z,963.32
2022-10-31T15:24:48.718Z,963.25
2022-10-31T15:29:50.077Z,963.21
2022-10-31T15:34:51.376Z,963.2
2022-10-31T15:39:53.479Z,963.16
2022-10-31T15:44:55.302Z,963.12
2022-10-31T15:49:57.094Z,963.13
2022-10-31T15:54:59.351Z,963.16
2022-10-31T16:00:00.779Z,963.1
2022-10-31T16:05:01.984Z,963.03
2022-10-31T16:10:03.896Z,963.02
2022-10-31T16:15:05.052Z,963.1
2022-10-31T16:20:06.275Z,963.14
2022-10-31T16:25:07.556Z,963.12
2022-10-31T16:30:08.660Z,963.11
2022-10-31T16:35:10.301Z,963.13
2022-10-31T16:40:12.000Z,963.12
2022-10-31T16:45:13.534Z,963.15
2022-10-31T16:50:15.430Z,963.15
2022-10-31T16:55:17.463Z,963.18
2022-10-31T17:00:19.470Z,963.26
2022-10-31T17:05:20.699Z,963.23
2022-10-31T17:10:22.572Z,963.31
2022-10-31T17:15:24.520Z,963.33
2022-10-31T17:20:26.128Z,963.31
2022-10-31T17:25:28.110Z,963.28
2022-10-31T17:30:29.984Z,963.31
2022-10-31T17:35:31.950Z,963.3
2022-10-31T17:40:33.738Z,963.28
2022-10-31T17:45:35.763Z,963.27
2022-10-31T17:50:37.529Z,963.2
2022-10-31T17:55:39.181Z,963.15
2022-10-31T18:00:40.464Z,963.15
2022-10-31T18:05:42.041Z,963.2
2022-10-31T18:10:43.937Z,963.18
2022-10-31T18:15:45.832Z,963.16
2022-10-31T18:20:53.764Z,963.16
2022-10-31T18:25:55.349Z,963.14
2022-10-31T18:30:57.141Z,963.15
2022-10-31T18:35:58.956Z,963.13
2022-10-31T18:41:00.990Z,963.05
2022-10-31T18:46:02.244Z,963.04
2022-10-31T18:56:05.400Z,963.04
2022-10-31T19:01:06.943Z,963.02
2022-10-31T19:06:08.321Z,963
2022-10-31T19:11:10.329Z,963.02
2022-10-31T19:16:12.394Z,963.02
2022-10-31T19:21:14.007Z,962.98
2022-10-31T19:26:16.174Z,963
2022-10-31T19:31:17.874Z,962.97
2022-10-31T19:36:19.490Z,962.9
2022-10-31T20:21:34.465Z,962.93
2022-10-31T20:26:36.688Z,963
2022-10-31T20:41:41.731Z,963.05
2022-10-31T20:56:46.984Z,963.09
2022-10-31T21:01:48.710Z,963.06
2022-10-31T21:06:50.526Z,963.14
2022-10-31T21:11:52.037Z,963.12
2022-10-31T21:21:55.325Z,963.08
2022-10-31T21:26:57.329Z,963.12
2022-10-31T21:31:59.223Z,963.05
2022-10-31T21:37:00.950Z,963.01
2022-10-31T21:42:02.144Z,963.05
2022-10-31T21:47:03.743Z,962.95
2022-10-31T21:52:05.911Z,962.96
2022-10-31T21:57:07.325Z,963
2022-10-31T22:02:09.050Z,962.91
2022-10-31T22:07:10.295Z,962.89
2022-10-31T22:12:12.074Z,962.93
2022-10-31T22:17:13.135Z,962.93
2022-10-31T22:22:15.287Z,962.97
2022-10-31T22:27:16.664Z,962.96
2022-10-31T22:32:18.493Z,962.92
2022-10-31T22:37:20.005Z,962.79
2022-10-31T22:42:21.177Z,962.75
2022-10-31T22:47:22.446Z,962.66
2022-10-31T22:52:24.390Z,962.71
2022-10-31T22:57:26.508Z,962.8
2022-10-31T23:12:31.484Z,962.79
2022-10-31T23:17:33.195Z,962.77
2022-10-31T23:22:34.309Z,962.85
2022-10-31T23:27:35.732Z,962.81
2022-10-31T23:32:37.072Z,962.8
2022-10-31T23:37:38.708Z,962.87
2022-10-31T23:42:40.193Z,962.87
2022-10-31T23:47:43.157Z,962.88
2022-10-31T23:52:43.515Z,963.07
2022-10-31T23:57:45.188Z,963.11
